createdAt,value
2018-03-26T00:00:44.911Z,39.83
2018-03-26T00:03:12.533Z,39.85
2018-03-26T00:05:40.862Z,42.08
2018-03-26T00:08:08.456Z,43.50
2018-03-26T00:10:36.026Z,42.05
2018-03-26T00:13:03.604Z,40.45
2018-03-26T00:15:31.181Z,42.50
2018-03-26T00:17:58.748Z,42.15
2018-03-26T00:20:26.315Z,40.65
2018-03-26T00:22:54.694Z,41.50
2018-03-26T00:25:22.251Z,40.65
2018-03-26T00:27:49.818Z,39.92
2018-03-26T00:30:17.388Z,40.30
2018-03-26T00:32:45.730Z,41.03
2018-03-26T00:35:13.305Z,40.33
2018-03-26T00:37:40.888Z,39.50
2018-03-26T00:40:09.210Z,44.60
2018-03-26T00:42:36.777Z,40.10
2018-03-26T00:45:04.381Z,41.95
2018-03-26T00:47:32.742Z,40.17
2018-03-26T00:50:00.306Z,41.85
2018-03-26T00:52:27.859Z,41.65
2018-03-26T00:54:55.438Z,38.50
2018-03-26T00:57:23.041Z,39.13
2018-03-26T00:59:50.617Z,44.60
2018-03-26T01:02:18.223Z,38.92
2018-03-26T01:04:46.540Z,42.75
2018-03-26T01:07:14.084Z,40.30
2018-03-26T01:09:41.665Z,38.97
2018-03-26T01:12:09.231Z,40.65
2018-03-26T01:14:36.799Z,43.05
2018-03-26T01:17:04.380Z,40.45
2018-03-26T01:19:31.952Z,42.28
2018-03-26T01:21:59.501Z,42.03
2018-03-26T01:24:27.097Z,42.90
2018-03-26T01:26:55.416Z,42.33
2018-03-26T01:29:22.985Z,38.60
2018-03-26T01:31:50.589Z,38.72
2018-03-26T01:34:18.912Z,38.90
2018-03-26T01:36:46.487Z,40.85
2018-03-26T01:39:14.059Z,38.83
2018-03-26T01:41:41.636Z,41.88
2018-03-26T01:44:09.199Z,42.40
2018-03-26T01:46:37.577Z,41.08
2018-03-26T01:49:05.907Z,41.35
2018-03-26T01:51:33.457Z,40.38
2018-03-26T01:54:01.146Z,40.08
2018-03-26T01:56:28.704Z,41.42
2018-03-26T01:58:56.262Z,42.38
2018-03-26T02:01:23.841Z,42.83
2018-03-26T02:03:51.415Z,41.63
2018-03-26T02:06:18.975Z,43.33
2018-03-26T02:08:46.577Z,43.53
2018-03-26T02:11:14.896Z,40.60
2018-03-26T02:13:42.459Z,42.60
2018-03-26T02:16:10.029Z,43.42
2018-03-26T02:18:37.614Z,42.60
2018-03-26T02:21:05.950Z,44.00
2018-03-26T02:23:33.533Z,46.72
2018-03-26T02:26:01.117Z,46.17
2018-03-26T02:28:28.695Z,45.60
2018-03-26T02:30:56.283Z,43.55
2018-03-26T02:33:23.854Z,46.33
2018-03-26T02:35:51.412Z,42.17
2018-03-26T02:38:19.014Z,45.60
2018-03-26T02:40:46.589Z,45.22
2018-03-26T02:43:14.202Z,49.42
2018-03-26T02:45:41.808Z,45.60
2018-03-26T02:48:09.379Z,45.55
2018-03-26T02:50:36.989Z,44.40
2018-03-26T02:53:04.560Z,45.53
2018-03-26T02:55:32.138Z,45.58
2018-03-26T02:57:59.808Z,46.30
2018-03-26T03:00:27.391Z,48.75
2018-03-26T03:02:54.989Z,47.30
2018-03-26T03:05:22.572Z,48.55
2018-03-26T03:07:50.885Z,46.30
2018-03-26T03:10:18.465Z,50.63
2018-03-26T03:12:46.016Z,50.10
2018-03-26T03:15:13.593Z,50.75
2018-03-26T03:17:41.167Z,48.60
2018-03-26T03:20:08.748Z,49.97
2018-03-26T03:22:37.110Z,54.60
2018-03-26T03:25:05.461Z,50.12
2018-03-26T03:27:33.056Z,48.55
2018-03-26T03:30:00.627Z,52.67
2018-03-26T03:32:28.949Z,53.03
2018-03-26T03:34:56.535Z,50.55
2018-03-26T03:37:24.090Z,51.53
2018-03-26T03:39:51.675Z,52.03
2018-03-26T03:42:20.017Z,52.20
2018-03-26T03:44:47.586Z,50.22
2018-03-26T03:47:15.163Z,50.25
2018-03-26T03:49:42.728Z,52.62
2018-03-26T03:52:10.310Z,52.10
2018-03-26T03:54:38.656Z,53.33
2018-03-26T03:57:06.224Z,52.53
2018-03-26T03:59:33.883Z,52.13
2018-03-26T04:02:01.455Z,55.08
2018-03-26T04:04:29.038Z,51.50
2018-03-26T04:06:57.378Z,52.95
2018-03-26T04:09:24.936Z,53.28
2018-03-26T04:11:52.518Z,50.67
2018-03-26T04:14:20.101Z,53.78
2018-03-26T04:16:47.699Z,55.88
2018-03-26T04:19:15.262Z,53.25
2018-03-26T04:21:42.840Z,53.78
2018-03-26T04:24:10.422Z,54.20
2018-03-26T04:26:38.774Z,54.78
2018-03-26T04:29:06.366Z,53.15
2018-03-26T04:31:34.698Z,52.22
2018-03-26T04:34:02.303Z,52.80
2018-03-26T04:36:30.665Z,53.28
2018-03-26T04:38:58.219Z,52.45
2018-03-26T04:41:31.626Z,53.60
2018-03-26T04:43:59.263Z,53.10
2018-03-26T04:46:26.840Z,53.53
2018-03-26T04:48:54.436Z,53.55
2018-03-26T04:51:22.770Z,54.28
2018-03-26T04:53:50.371Z,51.13
2018-03-26T04:56:18.710Z,56.37
2018-03-26T04:58:47.062Z,52.95
2018-03-26T05:01:14.680Z,52.60
2018-03-26T05:03:43.000Z,54.25
2018-03-26T05:06:10.575Z,53.72
2018-03-26T05:08:38.126Z,56.40
2018-03-26T05:11:05.693Z,54.88
2018-03-26T05:13:33.286Z,55.58
2018-03-26T05:16:00.837Z,61.70
2018-03-26T05:18:28.449Z,58.17
2018-03-26T05:20:56.013Z,51.67
2018-03-26T05:23:23.594Z,58.00
2018-03-26T05:25:51.192Z,54.97
2018-03-26T05:28:18.757Z,59.83
2018-03-26T05:30:47.129Z,56.95
2018-03-26T05:33:15.452Z,56.30
2018-03-26T05:35:43.018Z,58.75
2018-03-26T05:38:10.589Z,57.58
2018-03-26T05:40:38.176Z,58.58
2018-03-26T05:43:05.770Z,58.67
2018-03-26T05:45:33.342Z,61.88
2018-03-26T05:48:00.935Z,57.42
2018-03-26T05:50:28.522Z,57.90
2018-03-26T05:52:56.092Z,58.65
2018-03-26T05:55:24.446Z,58.78
2018-03-26T05:57:52.026Z,59.38
2018-03-26T06:00:20.348Z,59.30
2018-03-26T06:02:47.964Z,56.70
2018-03-26T06:05:15.536Z,61.22
2018-03-26T06:07:43.905Z,58.08
2018-03-26T06:10:11.481Z,59.20
2018-03-26T06:12:39.821Z,58.22
2018-03-26T06:15:07.409Z,56.80
2018-03-26T06:17:34.975Z,57.47
2018-03-26T06:20:03.375Z,56.55
2018-03-26T06:22:30.940Z,59.22
2018-03-26T06:24:58.526Z,59.25
2018-03-26T06:27:26.103Z,54.20
2018-03-26T06:29:53.678Z,57.42
2018-03-26T06:32:21.267Z,60.53
2018-03-26T06:34:49.586Z,56.40
2018-03-26T06:37:33.752Z,51.47
2018-03-26T06:40:01.320Z,49.00
2018-03-26T06:42:28.887Z,48.90
2018-03-26T06:44:56.437Z,49.72
2018-03-26T06:47:24.064Z,50.78
2018-03-26T06:49:51.634Z,48.83
2018-03-26T06:52:19.217Z,45.35
2018-03-26T06:54:46.804Z,49.97
2018-03-26T06:57:15.139Z,46.45
2018-03-26T06:59:42.760Z,48.72
2018-03-26T07:02:10.320Z,45.40
2018-03-26T07:04:38.656Z,46.28
2018-03-26T07:07:06.220Z,45.83
2018-03-26T07:09:33.786Z,45.25
2018-03-26T07:12:01.375Z,47.62
2018-03-26T07:14:29.689Z,47.38
2018-03-26T07:16:57.252Z,43.50
2018-03-26T07:19:24.916Z,46.88
2018-03-26T07:21:52.578Z,42.70
2018-03-26T07:24:20.189Z,44.63
2018-03-26T07:26:48.523Z,47.03
2018-03-26T07:29:16.087Z,48.05
2018-03-26T07:31:43.666Z,46.53
2018-03-26T07:34:11.246Z,50.70
2018-03-26T07:36:39.618Z,46.70
2018-03-26T07:39:07.177Z,45.75
2018-03-26T07:41:34.746Z,46.40
2018-03-26T07:44:03.105Z,44.38
2018-03-26T07:46:30.685Z,46.25
2018-03-26T07:48:58.288Z,51.60
2018-03-26T07:51:26.622Z,50.05
2018-03-26T07:53:54.970Z,52.05
2018-03-26T07:56:22.571Z,50.25
2018-03-26T07:58:50.899Z,46.08
2018-03-26T08:01:18.491Z,51.58
2018-03-26T08:03:46.055Z,49.67
2018-03-26T08:06:13.626Z,53.33
2018-03-26T08:08:41.971Z,51.78
2018-03-26T08:11:09.552Z,51.67
2018-03-26T08:13:37.931Z,52.60
2018-03-26T08:16:05.492Z,47.97
2018-03-26T08:18:33.096Z,50.63
2018-03-26T08:21:00.710Z,46.22
2018-03-26T08:23:28.282Z,47.97
2018-03-26T08:25:56.633Z,46.55
2018-03-26T08:28:24.203Z,43.42
2018-03-26T08:30:51.762Z,44.03
2018-03-26T08:33:19.360Z,44.03
2018-03-26T08:35:46.927Z,45.47
2018-03-26T08:38:14.501Z,41.83
2018-03-26T08:40:42.061Z,39.05
2018-03-26T08:43:09.657Z,39.83
2018-03-26T08:45:37.230Z,32.67
2018-03-26T08:48:04.792Z,31.93
2018-03-26T08:50:32.370Z,29.70
2018-03-26T08:53:00.680Z,26.50
2018-03-26T08:55:28.262Z,20.37
2018-03-26T08:57:55.813Z,24.73
2018-03-26T09:00:23.369Z,24.77
2018-03-26T09:02:50.964Z,28.43
2018-03-26T09:05:18.515Z,30.63
2018-03-26T09:07:46.104Z,32.57
2018-03-26T09:10:14.431Z,29.20
2018-03-26T09:12:41.990Z,27.60
2018-03-26T09:15:09.658Z,27.67
2018-03-26T09:17:37.210Z,25.20
2018-03-26T09:20:04.808Z,24.70
2018-03-26T09:22:32.372Z,22.80
2018-03-26T09:24:59.937Z,25.63
2018-03-26T09:27:28.292Z,26.27
2018-03-26T09:29:55.855Z,24.80
2018-03-26T09:32:23.446Z,29.00
2018-03-26T09:34:51.769Z,28.97
2018-03-26T09:37:19.327Z,24.43
2018-03-26T09:39:46.916Z,22.87
2018-03-26T09:42:14.515Z,22.90
2018-03-26T09:44:42.866Z,24.60
2018-03-26T09:47:10.442Z,20.00
2018-03-26T09:49:38.797Z,19.13
2018-03-26T09:52:06.368Z,22.43
2018-03-26T09:54:33.948Z,20.87
2018-03-26T09:57:02.296Z,18.83
2018-03-26T09:59:29.858Z,18.97
2018-03-26T10:01:57.418Z,19.57
2018-03-26T10:04:25.764Z,17.47
2018-03-26T10:06:53.348Z,13.27
2018-03-26T10:09:20.920Z,14.53
2018-03-26T10:11:48.495Z,15.27
2018-03-26T10:14:16.048Z,16.80
2018-03-26T10:16:43.630Z,16.70
2018-03-26T10:19:11.956Z,16.20
2018-03-26T10:21:39.542Z,15.83
2018-03-26T10:24:07.115Z,14.90
2018-03-26T10:26:35.442Z,14.80
2018-03-26T10:29:03.043Z,14.27
2018-03-26T10:31:30.610Z,15.13
2018-03-26T10:33:58.970Z,16.10
2018-03-26T10:36:26.533Z,14.50
2018-03-26T10:38:54.112Z,19.30
2018-03-26T10:41:22.440Z,14.70
2018-03-26T10:43:49.992Z,12.03
2018-03-26T10:46:17.588Z,12.80
2018-03-26T10:48:45.164Z,12.70
2018-03-26T10:51:13.534Z,9.50
2018-03-26T10:53:41.104Z,10.97
2018-03-26T10:56:08.657Z,9.50
2018-03-26T10:58:36.238Z,10.30
2018-03-26T11:01:04.578Z,9.30
2018-03-26T11:03:32.179Z,11.37
2018-03-26T11:06:00.510Z,10.00
2018-03-26T11:08:28.086Z,7.80
2018-03-26T11:10:55.664Z,9.20
2018-03-26T11:13:23.215Z,9.63
2018-03-26T11:15:50.804Z,8.27
2018-03-26T11:18:19.149Z,9.23
2018-03-26T11:20:46.737Z,9.70
2018-03-26T11:23:14.354Z,8.30
2018-03-26T11:25:41.933Z,11.33
2018-03-26T11:28:09.517Z,10.57
2018-03-26T11:30:37.856Z,11.17
2018-03-26T11:33:05.408Z,10.53
2018-03-26T11:35:32.986Z,9.10
2018-03-26T11:38:00.538Z,7.67
2018-03-26T11:40:28.134Z,7.90
2018-03-26T11:42:55.688Z,7.90
2018-03-26T11:45:24.004Z,8.43
2018-03-26T11:47:51.644Z,5.87
2018-03-26T11:50:19.196Z,6.10
2018-03-26T11:52:47.532Z,6.37
2018-03-26T11:55:15.153Z,5.93
2018-03-26T11:57:42.756Z,5.20
2018-03-26T12:00:10.348Z,6.00
2018-03-26T12:02:38.696Z,6.23
2018-03-26T12:05:06.292Z,5.43
2018-03-26T12:07:34.632Z,6.47
2018-03-26T12:10:02.218Z,5.57
2018-03-26T12:12:29.783Z,5.40
2018-03-26T12:14:57.343Z,4.50
2018-03-26T12:17:24.940Z,4.50
2018-03-26T12:20:04.485Z,4.37
2018-03-26T12:22:32.077Z,4.37
2018-03-26T12:25:10.644Z,5.90
2018-03-26T12:27:50.827Z,5.53
2018-03-26T12:30:19.198Z,6.33
2018-03-26T12:32:46.894Z,4.70
2018-03-26T12:35:26.175Z,3.90
2018-03-26T12:37:54.528Z,3.80
2018-03-26T12:40:33.946Z,3.37
2018-03-26T12:43:02.314Z,3.77
2018-03-26T12:45:41.796Z,4.10
2018-03-26T12:48:10.153Z,3.80
2018-03-26T12:50:51.083Z,3.70
2018-03-26T12:53:18.676Z,3.45
2018-03-26T12:55:46.261Z,3.87
2018-03-26T12:58:25.623Z,3.27
2018-03-26T13:01:04.972Z,3.27
2018-03-26T13:03:32.552Z,3.33
2018-03-26T13:06:00.101Z,3.20
2018-03-26T13:08:27.671Z,2.73
2018-03-26T13:10:55.247Z,3.70
2018-03-26T13:13:22.832Z,3.87
2018-03-26T13:15:50.432Z,3.30
2018-03-26T13:18:18.003Z,3.07
2018-03-26T13:20:45.566Z,3.50
2018-03-26T13:23:13.141Z,3.23
2018-03-26T13:25:40.723Z,3.03
2018-03-26T13:28:08.355Z,4.10
2018-03-26T13:30:35.910Z,3.20
2018-03-26T13:33:03.460Z,4.57
2018-03-26T13:35:31.034Z,3.30
2018-03-26T13:37:58.642Z,2.63
2018-03-26T13:40:27.004Z,2.93
2018-03-26T13:42:54.570Z,3.13
2018-03-26T13:45:22.129Z,3.50
2018-03-26T13:47:49.699Z,3.40
2018-03-26T13:50:17.252Z,2.92
2018-03-26T13:52:44.851Z,3.20
2018-03-26T13:55:12.417Z,2.90
2018-03-26T13:57:39.992Z,3.07
2018-03-26T14:00:07.560Z,3.70
2018-03-26T14:02:35.121Z,2.80
2018-03-26T14:05:02.718Z,3.20
2018-03-26T14:07:31.064Z,2.67
2018-03-26T14:10:10.459Z,3.17
2018-03-26T14:12:50.003Z,3.67
2018-03-26T14:15:29.351Z,3.17
2018-03-26T14:17:56.896Z,3.13
2018-03-26T14:20:25.214Z,3.33
2018-03-26T14:22:52.791Z,4.03
2018-03-26T14:25:20.379Z,3.50
2018-03-26T14:27:48.713Z,3.57
2018-03-26T14:30:16.258Z,4.00
2018-03-26T14:32:43.834Z,4.30
2018-03-26T14:38:26.918Z,4.17
2018-03-26T14:40:54.459Z,3.10
2018-03-26T14:43:22.019Z,4.00
2018-03-26T14:45:49.548Z,6.37
2018-03-26T14:48:17.083Z,4.30
2018-03-26T14:50:45.411Z,3.20
2018-03-26T14:53:12.962Z,3.13
2018-03-26T14:55:40.519Z,3.20
2018-03-26T14:58:08.056Z,3.07
2018-03-26T15:00:36.391Z,3.70
2018-03-26T15:03:03.922Z,3.40
2018-03-26T15:05:31.450Z,3.77
2018-03-26T15:07:59.779Z,3.65
2018-03-26T15:10:27.317Z,3.47
2018-03-26T15:12:54.879Z,3.03
2018-03-26T15:15:22.441Z,3.37
2018-03-26T15:17:49.985Z,3.37
2018-03-26T15:20:17.578Z,4.13
2018-03-26T15:22:45.125Z,3.93
2018-03-26T15:25:12.671Z,3.83
2018-03-26T15:27:40.193Z,3.70
2018-03-26T15:30:08.514Z,4.60
2018-03-26T15:32:36.083Z,4.27
2018-03-26T15:35:03.633Z,3.60
2018-03-26T15:37:31.201Z,3.80
2018-03-26T15:39:59.493Z,3.43
2018-03-26T15:42:27.032Z,5.00
2018-03-26T15:44:54.571Z,4.57
2018-03-26T15:47:22.123Z,5.30
2018-03-26T15:49:49.687Z,4.70
2018-03-26T15:52:17.234Z,5.30
2018-03-26T15:54:44.792Z,4.63
2018-03-26T15:57:12.336Z,4.20
2018-03-26T15:59:40.649Z,4.87
2018-03-26T16:02:07.708Z,4.53
2018-03-26T16:04:35.243Z,5.13
2018-03-26T16:07:02.764Z,4.70
2018-03-26T16:09:30.334Z,5.53
2018-03-26T16:11:58.634Z,5.13
2018-03-26T16:14:26.175Z,5.37
2018-03-26T16:16:54.485Z,5.60
2018-03-26T16:19:22.031Z,4.53
2018-03-26T16:21:49.589Z,5.43
2018-03-26T16:24:17.150Z,5.73
2018-03-26T16:26:44.737Z,5.50
2018-03-26T16:29:12.275Z,4.63
2018-03-26T16:31:39.833Z,5.50
2018-03-26T16:34:07.406Z,6.00
2018-03-26T16:36:34.953Z,5.83
2018-03-26T16:39:02.507Z,5.53
2018-03-26T16:41:41.791Z,6.03
2018-03-26T16:44:09.381Z,6.40
2018-03-26T16:46:36.951Z,5.37
2018-03-26T16:49:04.492Z,5.47
2018-03-26T16:51:32.816Z,5.40
2018-03-26T16:54:00.375Z,5.50
2018-03-26T16:56:27.919Z,6.23
2018-03-26T16:58:55.453Z,5.90
2018-03-26T17:01:23.771Z,6.70
2018-03-26T17:03:51.321Z,6.47
2018-03-26T17:06:18.876Z,6.03
2018-03-26T17:08:46.397Z,8.20
2018-03-26T17:11:14.689Z,8.03
2018-03-26T17:13:43.018Z,7.37
2018-03-26T17:16:10.561Z,7.83
2018-03-26T17:18:38.133Z,7.93
2018-03-26T17:21:05.654Z,7.90
2018-03-26T17:23:33.216Z,9.23
2018-03-26T17:26:00.733Z,8.70
2018-03-26T17:28:28.268Z,8.93
2018-03-26T17:30:55.801Z,8.77
2018-03-26T17:33:23.350Z,8.17
2018-03-26T17:35:50.899Z,7.33
2018-03-26T17:38:19.181Z,8.70
2018-03-26T17:40:46.732Z,8.20
2018-03-26T17:43:15.041Z,9.83
2018-03-26T17:45:42.615Z,9.50
2018-03-26T17:48:10.178Z,8.45
2018-03-26T17:50:37.721Z,8.97
2018-03-26T17:53:05.263Z,8.95
2018-03-26T17:55:32.789Z,9.27
2018-03-26T17:58:00.345Z,10.40
2018-03-26T18:00:28.637Z,9.87
2018-03-26T18:02:56.974Z,11.23
2018-03-26T18:05:24.506Z,12.18
2018-03-26T18:07:52.077Z,14.07
2018-03-26T18:10:19.642Z,13.50
2018-03-26T18:12:47.224Z,12.25
2018-03-26T18:15:14.781Z,11.73
2018-03-26T18:17:42.327Z,11.38
2018-03-26T18:20:09.888Z,10.85
2018-03-26T18:22:37.429Z,11.02
2018-03-26T18:25:04.991Z,12.23
2018-03-26T18:27:32.546Z,11.27
2018-03-26T18:30:00.122Z,10.43
2018-03-26T18:32:27.680Z,11.65
2018-03-26T18:34:55.227Z,12.85
2018-03-26T18:37:22.787Z,13.25
2018-03-26T18:39:50.339Z,13.73
2018-03-26T18:42:17.903Z,15.23
2018-03-26T18:44:45.444Z,15.10
2018-03-26T18:47:13.007Z,15.27
2018-03-26T18:49:40.545Z,15.18
2018-03-26T18:52:08.101Z,15.57
2018-03-26T18:54:35.677Z,16.33
2018-03-26T18:57:03.266Z,14.90
2018-03-26T18:59:30.832Z,14.85
2018-03-26T19:01:58.393Z,16.55
2018-03-26T19:04:25.945Z,18.80
2018-03-26T19:06:53.504Z,20.02
2018-03-26T19:09:21.067Z,19.00
2018-03-26T19:11:48.613Z,21.42
2018-03-26T19:14:16.155Z,22.05
2018-03-26T19:16:43.724Z,22.70
2018-03-26T19:19:11.272Z,24.10
2018-03-26T19:21:38.834Z,23.70
2018-03-26T19:24:06.370Z,24.45
2018-03-26T19:26:33.919Z,20.08
2018-03-26T19:29:02.263Z,19.65
2018-03-26T19:31:29.831Z,18.65
2018-03-26T19:33:57.419Z,17.62
2018-03-26T19:36:25.729Z,16.80
2018-03-26T19:38:53.300Z,17.10
2018-03-26T19:41:20.867Z,16.58
2018-03-26T19:43:48.425Z,17.87
2018-03-26T19:46:16.756Z,17.12
2018-03-26T19:48:45.067Z,16.95
2018-03-26T19:51:12.640Z,17.98
2018-03-26T19:53:40.189Z,19.10
2018-03-26T19:56:07.754Z,21.48
2018-03-26T19:58:35.325Z,21.77
2018-03-26T20:01:02.864Z,19.87
2018-03-26T20:03:30.449Z,20.88
2018-03-26T20:05:57.996Z,20.35
2018-03-26T20:08:29.561Z,18.20
2018-03-26T20:10:57.133Z,17.98
2018-03-26T20:13:24.669Z,18.17
2018-03-26T20:15:52.241Z,19.10
2018-03-26T20:18:19.788Z,21.37
2018-03-26T20:20:47.351Z,22.83
2018-03-26T20:23:15.016Z,21.12
2018-03-26T20:25:42.543Z,20.50
2018-03-26T20:28:10.066Z,24.30
2018-03-26T20:30:38.386Z,25.70
2018-03-26T20:33:05.971Z,26.83
2018-03-26T20:35:33.529Z,26.67
2018-03-26T20:38:01.091Z,27.40
2018-03-26T20:40:28.628Z,27.35
2018-03-26T20:42:56.180Z,25.33
2018-03-26T20:45:23.727Z,24.42
2018-03-26T20:47:51.269Z,25.48
2018-03-26T20:50:19.615Z,24.95
2018-03-26T20:52:47.170Z,25.65
2018-03-26T20:55:14.757Z,25.85
2018-03-26T20:57:43.085Z,25.00
2018-03-26T21:00:10.651Z,22.60
2018-03-26T21:02:38.181Z,21.33
2018-03-26T21:05:05.716Z,21.50
2018-03-26T21:07:34.040Z,19.85
2018-03-26T21:10:01.579Z,18.20
2018-03-26T21:12:29.136Z,19.05
2018-03-26T21:14:56.687Z,20.50
2018-03-26T21:17:24.272Z,21.48
2018-03-26T21:19:51.833Z,21.45
2018-03-26T21:22:19.389Z,21.27
2018-03-26T21:24:46.935Z,21.65
2018-03-26T21:27:14.471Z,22.27
2018-03-26T21:29:42.799Z,21.58
2018-03-26T21:32:10.398Z,21.33
2018-03-26T21:34:38.735Z,21.60
2018-03-26T21:37:06.276Z,20.42
2018-03-26T21:39:33.830Z,21.33
2018-03-26T21:42:01.390Z,19.75
2018-03-26T21:44:28.946Z,20.05
2018-03-26T21:46:56.518Z,20.52
2018-03-26T21:49:24.078Z,20.25
2018-03-26T21:51:51.663Z,20.15
2018-03-26T21:54:19.216Z,20.42
2018-03-26T21:56:46.772Z,19.20
2018-03-26T21:59:14.349Z,20.73
2018-03-26T22:01:41.894Z,20.45
2018-03-26T22:04:09.452Z,20.42
2018-03-26T22:06:37.003Z,19.95
2018-03-26T22:09:04.564Z,20.40
2018-03-26T22:11:32.871Z,20.15
2018-03-26T22:14:00.459Z,20.90
2018-03-26T22:16:28.001Z,20.60
2018-03-26T22:18:56.323Z,21.37
2018-03-26T22:21:23.898Z,21.12
2018-03-26T22:23:51.444Z,21.48
2018-03-26T22:26:19.000Z,22.77
2018-03-26T22:28:46.541Z,22.30
2018-03-26T22:31:14.114Z,21.98
2018-03-26T22:33:41.663Z,23.20
2018-03-26T22:36:09.230Z,21.35
2018-03-26T22:38:36.785Z,19.95
2018-03-26T22:41:04.370Z,20.10
2018-03-26T22:43:31.914Z,21.33
2018-03-26T22:45:59.442Z,21.52
2018-03-26T22:48:27.781Z,20.48
2018-03-26T22:50:55.337Z,23.45
2018-03-26T22:53:22.911Z,23.05
2018-03-26T22:55:50.452Z,20.58
2018-03-26T22:58:17.999Z,20.92
2018-03-26T23:00:45.574Z,20.20
2018-03-26T23:03:13.129Z,19.45
2018-03-26T23:05:40.679Z,20.95
2018-03-26T23:08:08.237Z,19.80
2018-03-26T23:10:35.803Z,20.40
2018-03-26T23:13:03.348Z,22.35
2018-03-26T23:15:30.901Z,22.30
2018-03-26T23:17:58.441Z,23.48
2018-03-26T23:20:25.985Z,23.40
2018-03-26T23:22:54.302Z,26.42
2018-03-26T23:25:21.849Z,27.13
2018-03-26T23:27:49.417Z,25.95
2018-03-26T23:30:16.973Z,25.27
2018-03-26T23:32:44.528Z,26.95
2018-03-26T23:35:12.088Z,25.15
2018-03-26T23:37:39.627Z,26.08
2018-03-26T23:40:07.207Z,28.15
2018-03-26T23:42:34.764Z,28.10
2018-03-26T23:45:02.325Z,28.75
2018-03-26T23:47:29.888Z,26.65
2018-03-26T23:49:57.440Z,27.87
2018-03-26T23:52:25.033Z,27.65
2018-03-26T23:54:53.334Z,25.05
2018-03-26T23:57:20.900Z,27.73
2018-03-26T23:59:48.461Z,28.90
